sensor_id;sensor_type;location;lat;lon;timestamp;temperature;humidity
23079;DHT22;11707;50.830;4.364;2023-03-29T00:01:16;9.10;99.90
23079;DHT22;11707;50.830;4.364;2023-03-29T00:03:42;9.10;99.90
23079;DHT22;11707;50.830;4.364;2023-03-29T00:06:10;9.00;99.90
23079;DHT22;11707;50.830;4.364;2023-03-29T00:08:42;9.00;99.90
23079;DHT22;11707;50.830;4.364;2023-03-29T00:11:12;9.10;99.90
23079;DHT22;11707;50.830;4.364;2023-03-29T00:13:40;9.20;99.90
23079;DHT22;11707;50.830;4.364;2023-03-29T00:16:06;9.20;99.90
23079;DHT22;11707;50.830;4.364;2023-03-29T00:18:34;9.20;99.90
23079;DHT22;11707;50.830;4.364;2023-03-29T00:21:00;9.00;99.90
23079;DHT22;11707;50.830;4.364;2023-03-29T00:23:26;9.00;99.90
23079;DHT22;11707;50.830;4.364;2023-03-29T00:25:53;9.10;99.90
23079;DHT22;11707;50.830;4.364;2023-03-29T00:28:19;9.30;99.90
23079;DHT22;11707;50.830;4.364;2023-03-29T00:30:45;9.40;99.90
23079;DHT22;11707;50.830;4.364;2023-03-29T00:33:12;9.40;83.70
23079;DHT22;11707;50.830;4.364;2023-03-29T00:35:39;9.40;36.30
23079;DHT22;11707;50.830;4.364;2023-03-29T00:38:05;9.40;75.20
23079;DHT22;11707;50.830;4.364;2023-03-29T00:40:32;9.40;80.60
23079;DHT22;11707;50.830;4.364;2023-03-29T00:42:57;9.40;97.60
23079;DHT22;11707;50.830;4.364;2023-03-29T00:45:26;9.50;61.10
23079;DHT22;11707;50.830;4.364;2023-03-29T00:48:03;9.50;56.70
23079;DHT22;11707;50.830;4.364;2023-03-29T00:50:40;9.50;87.10
23079;DHT22;11707;50.830;4.364;2023-03-29T00:53:13;9.40;99.90
23079;DHT22;11707;50.830;4.364;2023-03-29T00:55:51;9.40;99.90
23079;DHT22;11707;50.830;4.364;2023-03-29T00:58:23;9.50;99.90
23079;DHT22;11707;50.830;4.364;2023-03-29T01:01:02;9.50;99.90
23079;DHT22;11707;50.830;4.364;2023-03-29T01:03:33;9.60;99.90
23079;DHT22;11707;50.830;4.364;2023-03-29T01:06:03;9.60;99.90
23079;DHT22;11707;50.830;4.364;2023-03-29T01:08:43;9.70;99.90
23079;DHT22;11707;50.830;4.364;2023-03-29T01:11:23;9.50;99.90
23079;DHT22;11707;50.830;4.364;2023-03-29T01:16:17;9.40;99.90
23079;DHT22;11707;50.830;4.364;2023-03-29T01:18:44;9.50;99.90
23079;DHT22;11707;50.830;4.364;2023-03-29T01:21:38;9.60;99.90
23079;DHT22;11707;50.830;4.364;2023-03-29T01:26:42;9.80;99.90
23079;DHT22;11707;50.830;4.364;2023-03-29T01:29:13;9.80;99.90
23079;DHT22;11707;50.830;4.364;2023-03-29T01:31:44;9.80;99.90
23079;DHT22;11707;50.830;4.364;2023-03-29T01:34:18;9.70;99.90
23079;DHT22;11707;50.830;4.364;2023-03-29T01:39:45;9.80;99.90
23079;DHT22;11707;50.830;4.364;2023-03-29T01:45:03;9.80;1.00
23079;DHT22;11707;50.830;4.364;2023-03-29T01:50:43;9.70;1.00
23079;DHT22;11707;50.830;4.364;2023-03-29T01:53:12;9.70;6.50
23079;DHT22;11707;50.830;4.364;2023-03-29T01:55:45;9.80;14.40
23079;DHT22;11707;50.830;4.364;2023-03-29T01:58:12;9.70;56.00
23079;DHT22;11707;50.830;4.364;2023-03-29T02:00:40;9.80;43.60
23079;DHT22;11707;50.830;4.364;2023-03-29T02:03:07;9.50;99.90
23079;DHT22;11707;50.830;4.364;2023-03-29T02:05:35;9.40;99.90
23079;DHT22;11707;50.830;4.364;2023-03-29T02:08:06;9.20;99.90
23079;DHT22;11707;50.830;4.364;2023-03-29T02:10:33;9.00;99.90
23079;DHT22;11707;50.830;4.364;2023-03-29T02:12:59;8.90;99.90
23079;DHT22;11707;50.830;4.364;2023-03-29T02:15:27;9.10;99.90
23079;DHT22;11707;50.830;4.364;2023-03-29T02:17:53;9.10;99.90
23079;DHT22;11707;50.830;4.364;2023-03-29T02:20:26;9.20;99.90
23079;DHT22;11707;50.830;4.364;2023-03-29T02:25:38;9.50;99.90
23079;DHT22;11707;50.830;4.364;2023-03-29T02:28:07;9.50;99.90
23079;DHT22;11707;50.830;4.364;2023-03-29T02:33:18;9.60;99.90
23079;DHT22;11707;50.830;4.364;2023-03-29T02:35:59;9.60;99.90
23079;DHT22;11707;50.830;4.364;2023-03-29T02:38:28;9.70;99.90
23079;DHT22;11707;50.830;4.364;2023-03-29T02:40:56;9.70;99.90
23079;DHT22;11707;50.830;4.364;2023-03-29T02:43:23;9.80;99.90
23079;DHT22;11707;50.830;4.364;2023-03-29T02:45:52;9.80;99.90
23079;DHT22;11707;50.830;4.364;2023-03-29T02:48:23;9.80;99.90
23079;DHT22;11707;50.830;4.364;2023-03-29T02:50:53;9.90;99.90
23079;DHT22;11707;50.830;4.364;2023-03-29T02:53:29;10.00;99.90
23079;DHT22;11707;50.830;4.364;2023-03-29T02:55:57;10.10;99.90
23079;DHT22;11707;50.830;4.364;2023-03-29T02:58:26;9.90;99.90
23079;DHT22;11707;50.830;4.364;2023-03-29T03:00:55;10.00;99.90
23079;DHT22;11707;50.830;4.364;2023-03-29T03:03:24;10.10;99.90
23079;DHT22;11707;50.830;4.364;2023-03-29T03:05:52;10.10;99.90
23079;DHT22;11707;50.830;4.364;2023-03-29T03:08:18;10.10;99.90
23079;DHT22;11707;50.830;4.364;2023-03-29T03:10:45;10.00;99.90
23079;DHT22;11707;50.830;4.364;2023-03-29T03:13:13;10.00;99.90
23079;DHT22;11707;50.830;4.364;2023-03-29T03:15:38;10.00;99.90
23079;DHT22;11707;50.830;4.364;2023-03-29T03:18:07;10.00;99.90
23079;DHT22;11707;50.830;4.364;2023-03-29T03:20:34;10.00;99.90
23079;DHT22;11707;50.830;4.364;2023-03-29T03:23:02;10.00;99.90
23079;DHT22;11707;50.830;4.364;2023-03-29T03:25:28;9.90;1.00
23079;DHT22;11707;50.830;4.364;2023-03-29T03:27:56;9.90;1.00
23079;DHT22;11707;50.830;4.364;2023-03-29T03:30:22;9.80;1.00
23079;DHT22;11707;50.830;4.364;2023-03-29T03:32:48;9.90;1.00
23079;DHT22;11707;50.830;4.364;2023-03-29T03:35:19;9.90;1.00
23079;DHT22;11707;50.830;4.364;2023-03-29T03:37:45;9.90;1.00
23079;DHT22;11707;50.830;4.364;2023-03-29T03:40:11;9.90;1.00
23079;DHT22;11707;50.830;4.364;2023-03-29T03:42:40;10.00;1.00
23079;DHT22;11707;50.830;4.364;2023-03-29T03:45:11;10.00;1.00
23079;DHT22;11707;50.830;4.364;2023-03-29T03:47:37;9.90;1.00
23079;DHT22;11707;50.830;4.364;2023-03-29T03:50:04;9.80;1.00
23079;DHT22;11707;50.830;4.364;2023-03-29T03:52:30;9.80;1.00
23079;DHT22;11707;50.830;4.364;2023-03-29T03:54:56;9.90;1.00
23079;DHT22;11707;50.830;4.364;2023-03-29T03:57:22;10.00;1.00
23079;DHT22;11707;50.830;4.364;2023-03-29T03:59:51;10.10;1.00
23079;DHT22;11707;50.830;4.364;2023-03-29T04:02:17;10.10;1.00
23079;DHT22;11707;50.830;4.364;2023-03-29T04:04:44;10.00;1.00
23079;DHT22;11707;50.830;4.364;2023-03-29T04:07:11;10.00;1.00
23079;DHT22;11707;50.830;4.364;2023-03-29T04:09:42;9.90;1.00
23079;DHT22;11707;50.830;4.364;2023-03-29T04:12:08;9.90;1.00
23079;DHT22;11707;50.830;4.364;2023-03-29T04:14:38;9.80;1.00
23079;DHT22;11707;50.830;4.364;2023-03-29T04:17:05;9.80;1.00
23079;DHT22;11707;50.830;4.364;2023-03-29T04:19:31;9.80;1.00
23079;DHT22;11707;50.830;4.364;2023-03-29T04:21:57;9.80;1.00
23079;DHT22;11707;50.830;4.364;2023-03-29T04:24:22;9.70;1.00
23079;DHT22;11707;50.830;4.364;2023-03-29T04:26:49;9.70;1.00
23079;DHT22;11707;50.830;4.364;2023-03-29T04:29:17;9.70;1.00
23079;DHT22;11707;50.830;4.364;2023-03-29T04:31:42;9.80;1.00
23079;DHT22;11707;50.830;4.364;2023-03-29T04:34:08;9.80;1.00
23079;DHT22;11707;50.830;4.364;2023-03-29T04:36:34;9.70;1.00
23079;DHT22;11707;50.830;4.364;2023-03-29T04:39:00;9.80;1.00
23079;DHT22;11707;50.830;4.364;2023-03-29T04:41:28;9.50;1.00
23079;DHT22;11707;50.830;4.364;2023-03-29T04:43:54;9.20;10.10
23079;DHT22;11707;50.830;4.364;2023-03-29T04:46:20;9.10;18.00
23079;DHT22;11707;50.830;4.364;2023-03-29T04:48:46;9.10;21.40
23079;DHT22;11707;50.830;4.364;2023-03-29T04:51:21;9.10;24.90
23079;DHT22;11707;50.830;4.364;2023-03-29T04:53:49;9.10;22.40
23079;DHT22;11707;50.830;4.364;2023-03-29T04:56:14;9.20;24.10
23079;DHT22;11707;50.830;4.364;2023-03-29T04:58:41;9.40;17.80
23079;DHT22;11707;50.830;4.364;2023-03-29T05:01:08;9.40;4.80
23079;DHT22;11707;50.830;4.364;2023-03-29T05:03:34;9.40;10.10
23079;DHT22;11707;50.830;4.364;2023-03-29T05:06:05;9.50;12.50
23079;DHT22;11707;50.830;4.364;2023-03-29T05:08:35;9.50;8.00
23079;DHT22;11707;50.830;4.364;2023-03-29T05:11:08;9.60;5.30
23079;DHT22;11707;50.830;4.364;2023-03-29T05:13:40;9.60;6.30
23079;DHT22;11707;50.830;4.364;2023-03-29T05:16:07;9.70;3.40
23079;DHT22;11707;50.830;4.364;2023-03-29T05:18:33;9.90;1.00
23079;DHT22;11707;50.830;4.364;2023-03-29T05:20:59;10.10;1.00
23079;DHT22;11707;50.830;4.364;2023-03-29T05:23:29;10.00;1.00
23079;DHT22;11707;50.830;4.364;2023-03-29T05:25:57;10.20;1.00
23079;DHT22;11707;50.830;4.364;2023-03-29T05:28:23;10.20;1.00
23079;DHT22;11707;50.830;4.364;2023-03-29T05:31:01;10.10;1.00
23079;DHT22;11707;50.830;4.364;2023-03-29T05:33:29;10.20;1.00
23079;DHT22;11707;50.830;4.364;2023-03-29T05:36:06;10.30;1.00
23079;DHT22;11707;50.830;4.364;2023-03-29T05:38:33;10.30;1.00
23079;DHT22;11707;50.830;4.364;2023-03-29T05:40:59;10.30;1.00
23079;DHT22;11707;50.830;4.364;2023-03-29T05:43:25;10.00;1.00
23079;DHT22;11707;50.830;4.364;2023-03-29T05:45:52;9.90;1.00
23079;DHT22;11707;50.830;4.364;2023-03-29T05:48:19;9.80;2.90
23079;DHT22;11707;50.830;4.364;2023-03-29T05:50:52;9.80;3.70
23079;DHT22;11707;50.830;4.364;2023-03-29T05:53:20;9.70;15.40
23079;DHT22;11707;50.830;4.364;2023-03-29T05:55:49;9.90;11.10
23079;DHT22;11707;50.830;4.364;2023-03-29T05:58:15;10.10;1.00
23079;DHT22;11707;50.830;4.364;2023-03-29T06:00:45;10.20;1.00
23079;DHT22;11707;50.830;4.364;2023-03-29T06:03:19;10.00;1.00
23079;DHT22;11707;50.830;4.364;2023-03-29T06:05:45;9.90;10.90
23079;DHT22;11707;50.830;4.364;2023-03-29T06:08:13;10.00;7.50
23079;DHT22;11707;50.830;4.364;2023-03-29T06:10:42;10.00;1.00
23079;DHT22;11707;50.830;4.364;2023-03-29T06:13:08;10.10;1.00
23079;DHT22;11707;50.830;4.364;2023-03-29T06:15:34;10.30;1.00
23079;DHT22;11707;50.830;4.364;2023-03-29T06:18:03;10.10;1.00
23079;DHT22;11707;50.830;4.364;2023-03-29T06:20:30;10.00;2.40
23079;DHT22;11707;50.830;4.364;2023-03-29T06:22:59;9.90;6.70
23079;DHT22;11707;50.830;4.364;2023-03-29T06:25:25;10.00;8.70
23079;DHT22;11707;50.830;4.364;2023-03-29T06:27:51;9.80;10.80
23079;DHT22;11707;50.830;4.364;2023-03-29T06:30:17;9.80;20.10
23079;DHT22;11707;50.830;4.364;2023-03-29T06:32:43;9.80;23.80
23079;DHT22;11707;50.830;4.364;2023-03-29T06:35:09;9.90;21.20
23079;DHT22;11707;50.830;4.364;2023-03-29T06:37:37;9.90;21.40
23079;DHT22;11707;50.830;4.364;2023-03-29T06:40:14;9.90;23.90
23079;DHT22;11707;50.830;4.364;2023-03-29T06:42:42;10.00;14.10
23079;DHT22;11707;50.830;4.364;2023-03-29T06:45:08;9.90;16.00
23079;DHT22;11707;50.830;4.364;2023-03-29T06:47:34;10.10;18.70
23079;DHT22;11707;50.830;4.364;2023-03-29T06:50:00;10.20;14.40
23079;DHT22;11707;50.830;4.364;2023-03-29T06:52:26;10.30;4.20
23079;DHT22;11707;50.830;4.364;2023-03-29T06:54:51;10.30;2.40
23079;DHT22;11707;50.830;4.364;2023-03-29T06:57:17;10.30;7.50
23079;DHT22;11707;50.830;4.364;2023-03-29T06:59:43;10.30;1.00
23079;DHT22;11707;50.830;4.364;2023-03-29T07:02:09;10.20;8.20
23079;DHT22;11707;50.830;4.364;2023-03-29T07:04:37;10.20;12.60
23079;DHT22;11707;50.830;4.364;2023-03-29T07:07:03;10.20;7.60
23079;DHT22;11707;50.830;4.364;2023-03-29T07:09:32;10.40;1.70
23079;DHT22;11707;50.830;4.364;2023-03-29T07:11:58;10.20;14.00
23079;DHT22;11707;50.830;4.364;2023-03-29T07:14:25;10.40;7.00
23079;DHT22;11707;50.830;4.364;2023-03-29T07:16:57;10.30;8.60
23079;DHT22;11707;50.830;4.364;2023-03-29T07:19:23;10.40;8.60
23079;DHT22;11707;50.830;4.364;2023-03-29T07:21:51;10.40;3.40
23079;DHT22;11707;50.830;4.364;2023-03-29T07:24:17;10.30;8.20
23079;DHT22;11707;50.830;4.364;2023-03-29T07:26:44;10.30;14.00
23079;DHT22;11707;50.830;4.364;2023-03-29T07:29:11;10.30;3.80
23079;DHT22;11707;50.830;4.364;2023-03-29T07:31:37;10.40;12.10
23079;DHT22;11707;50.830;4.364;2023-03-29T07:34:08;10.40;7.70
23079;DHT22;11707;50.830;4.364;2023-03-29T07:36:37;10.50;3.40
23079;DHT22;11707;50.830;4.364;2023-03-29T07:39:08;10.80;1.00
23079;DHT22;11707;50.830;4.364;2023-03-29T07:41:34;10.90;1.00
23079;DHT22;11707;50.830;4.364;2023-03-29T07:44:00;10.90;1.00
23079;DHT22;11707;50.830;4.364;2023-03-29T07:46:35;11.00;1.00
23079;DHT22;11707;50.830;4.364;2023-03-29T07:49:06;11.20;1.00
23079;DHT22;11707;50.830;4.364;2023-03-29T07:51:33;11.30;1.00
23079;DHT22;11707;50.830;4.364;2023-03-29T07:54:01;11.40;1.00
23079;DHT22;11707;50.830;4.364;2023-03-29T07:56:29;11.50;1.00
23079;DHT22;11707;50.830;4.364;2023-03-29T07:58:55;11.50;1.00
23079;DHT22;11707;50.830;4.364;2023-03-29T08:01:21;11.60;1.00
23079;DHT22;11707;50.830;4.364;2023-03-29T08:03:47;11.60;1.00
23079;DHT22;11707;50.830;4.364;2023-03-29T08:06:13;11.50;1.00
23079;DHT22;11707;50.830;4.364;2023-03-29T08:08:40;11.50;1.00
23079;DHT22;11707;50.830;4.364;2023-03-29T08:11:08;11.40;1.00
23079;DHT22;11707;50.830;4.364;2023-03-29T08:13:34;11.60;1.00
23079;DHT22;11707;50.830;4.364;2023-03-29T08:16:00;11.70;1.00
23079;DHT22;11707;50.830;4.364;2023-03-29T08:18:26;11.60;1.00
23079;DHT22;11707;50.830;4.364;2023-03-29T08:20:52;11.80;1.00
23079;DHT22;11707;50.830;4.364;2023-03-29T08:23:20;12.00;1.00
23079;DHT22;11707;50.830;4.364;2023-03-29T08:25:46;11.80;1.00
23079;DHT22;11707;50.830;4.364;2023-03-29T08:28:11;12.00;1.00
23079;DHT22;11707;50.830;4.364;2023-03-29T08:30:38;12.00;1.00
23079;DHT22;11707;50.830;4.364;2023-03-29T08:33:06;12.20;1.00
23079;DHT22;11707;50.830;4.364;2023-03-29T08:35:32;12.10;1.00
23079;DHT22;11707;50.830;4.364;2023-03-29T08:37:57;12.20;1.00
23079;DHT22;11707;50.830;4.364;2023-03-29T08:40:25;12.30;1.00
23079;DHT22;11707;50.830;4.364;2023-03-29T08:45:46;12.40;1.00
23079;DHT22;11707;50.830;4.364;2023-03-29T08:50:54;12.40;1.00
23079;DHT22;11707;50.830;4.364;2023-03-29T08:53:37;12.30;1.00
23079;DHT22;11707;50.830;4.364;2023-03-29T08:56:12;11.90;1.00
23079;DHT22;11707;50.830;4.364;2023-03-29T08:58:41;12.10;1.00
23079;DHT22;11707;50.830;4.364;2023-03-29T09:01:08;12.20;1.00
23079;DHT22;11707;50.830;4.364;2023-03-29T09:03:44;12.20;1.00
23079;DHT22;11707;50.830;4.364;2023-03-29T09:06:15;12.30;1.00
23079;DHT22;11707;50.830;4.364;2023-03-29T09:09:08;12.50;1.00
23079;DHT22;11707;50.830;4.364;2023-03-29T09:14:22;12.70;1.00
23079;DHT22;11707;50.830;4.364;2023-03-29T09:27:26;12.90;1.00
23079;DHT22;11707;50.830;4.364;2023-03-29T09:35:50;13.20;1.00
23079;DHT22;11707;50.830;4.364;2023-03-29T09:38:19;13.40;1.00
23079;DHT22;11707;50.830;4.364;2023-03-29T09:40:52;13.40;1.00
23079;DHT22;11707;50.830;4.364;2023-03-29T09:43:32;13.30;1.00
23079;DHT22;11707;50.830;4.364;2023-03-29T09:46:02;13.50;1.00
23079;DHT22;11707;50.830;4.364;2023-03-29T09:48:33;13.60;1.00
23079;DHT22;11707;50.830;4.364;2023-03-29T09:51:04;13.70;1.00
23079;DHT22;11707;50.830;4.364;2023-03-29T09:53:32;13.70;1.00
23079;DHT22;11707;50.830;4.364;2023-03-29T09:55:59;13.80;1.00
23079;DHT22;11707;50.830;4.364;2023-03-29T09:58:27;13.60;1.00
23079;DHT22;11707;50.830;4.364;2023-03-29T10:00:59;13.80;1.00
23079;DHT22;11707;50.830;4.364;2023-03-29T10:03:29;13.90;1.00
23079;DHT22;11707;50.830;4.364;2023-03-29T10:05:58;14.10;1.00
23079;DHT22;11707;50.830;4.364;2023-03-29T10:08:37;14.10;1.00
23079;DHT22;11707;50.830;4.364;2023-03-29T10:11:16;14.20;1.00
23079;DHT22;11707;50.830;4.364;2023-03-29T10:13:47;14.30;1.00
23079;DHT22;11707;50.830;4.364;2023-03-29T10:16:21;14.30;1.00
23079;DHT22;11707;50.830;4.364;2023-03-29T10:18:48;14.30;1.00
23079;DHT22;11707;50.830;4.364;2023-03-29T10:21:20;14.20;1.00
23079;DHT22;11707;50.830;4.364;2023-03-29T10:23:47;14.10;1.00
23079;DHT22;11707;50.830;4.364;2023-03-29T10:26:19;14.30;1.00
23079;DHT22;11707;50.830;4.364;2023-03-29T10:28:46;14.50;1.00
23079;DHT22;11707;50.830;4.364;2023-03-29T10:31:17;14.60;1.00
23079;DHT22;11707;50.830;4.364;2023-03-29T10:33:53;14.80;1.00
23079;DHT22;11707;50.830;4.364;2023-03-29T10:36:20;14.90;1.00
23079;DHT22;11707;50.830;4.364;2023-03-29T10:38:47;15.30;1.00
23079;DHT22;11707;50.830;4.364;2023-03-29T10:41:14;15.20;1.00
23079;DHT22;11707;50.830;4.364;2023-03-29T10:43:46;15.30;1.00
23079;DHT22;11707;50.830;4.364;2023-03-29T10:49:21;15.20;1.00
23079;DHT22;11707;50.830;4.364;2023-03-29T10:51:48;15.10;1.00
23079;DHT22;11707;50.830;4.364;2023-03-29T10:54:17;14.90;1.00
23079;DHT22;11707;50.830;4.364;2023-03-29T10:56:51;15.10;1.00
23079;DHT22;11707;50.830;4.364;2023-03-29T10:59:37;15.20;1.00
23079;DHT22;11707;50.830;4.364;2023-03-29T11:22:42;15.30;1.00
23079;DHT22;11707;50.830;4.364;2023-03-29T11:30:51;15.40;1.00
23079;DHT22;11707;50.830;4.364;2023-03-29T11:36:13;15.90;1.00
23079;DHT22;11707;50.830;4.364;2023-03-29T11:39:13;16.00;1.00
23079;DHT22;11707;50.830;4.364;2023-03-29T11:41:42;15.80;1.00
23079;DHT22;11707;50.830;4.364;2023-03-29T11:44:26;15.50;1.00
23079;DHT22;11707;50.830;4.364;2023-03-29T11:50:20;15.00;1.00
23079;DHT22;11707;50.830;4.364;2023-03-29T11:52:48;15.30;1.00
23079;DHT22;11707;50.830;4.364;2023-03-29T11:55:29;15.50;1.00
23079;DHT22;11707;50.830;4.364;2023-03-29T11:58:14;15.40;1.00
23079;DHT22;11707;50.830;4.364;2023-03-29T12:00:47;15.50;1.00
23079;DHT22;11707;50.830;4.364;2023-03-29T12:03:35;15.60;1.00
23079;DHT22;11707;50.830;4.364;2023-03-29T12:06:21;15.90;1.00
23079;DHT22;11707;50.830;4.364;2023-03-29T12:08:59;15.80;1.00
23079;DHT22;11707;50.830;4.364;2023-03-29T12:11:42;16.10;1.00
23079;DHT22;11707;50.830;4.364;2023-03-29T12:14:16;16.10;1.00
23079;DHT22;11707;50.830;4.364;2023-03-29T12:16:52;16.10;1.00
23079;DHT22;11707;50.830;4.364;2023-03-29T12:19:48;16.30;1.00
23079;DHT22;11707;50.830;4.364;2023-03-29T12:22:20;16.40;99.90
23079;DHT22;11707;50.830;4.364;2023-03-29T12:24:50;16.40;99.90
23079;DHT22;11707;50.830;4.364;2023-03-29T12:40:45;15.90;1.00
23079;DHT22;11707;50.830;4.364;2023-03-29T12:43:22;16.20;1.00
23079;DHT22;11707;50.830;4.364;2023-03-29T12:45:55;16.40;1.00
23079;DHT22;11707;50.830;4.364;2023-03-29T12:48:28;16.60;1.00
23079;DHT22;11707;50.830;4.364;2023-03-29T12:51:11;16.80;1.00
23079;DHT22;11707;50.830;4.364;2023-03-29T13:02:23;16.80;1.00
23079;DHT22;11707;50.830;4.364;2023-03-29T13:04:53;17.00;1.00
23079;DHT22;11707;50.830;4.364;2023-03-29T13:09:50;17.30;99.90
23079;DHT22;11707;50.830;4.364;2023-03-29T13:14:55;17.80;99.90
23079;DHT22;11707;50.830;4.364;2023-03-29T13:20:28;17.20;1.00
23079;DHT22;11707;50.830;4.364;2023-03-29T13:31:26;16.60;1.00
23079;DHT22;11707;50.830;4.364;2023-03-29T13:39:05;16.70;1.00
23079;DHT22;11707;50.830;4.364;2023-03-29T13:44:15;17.50;1.00
23079;DHT22;11707;50.830;4.364;2023-03-29T13:46:47;18.00;1.00
23079;DHT22;11707;50.830;4.364;2023-03-29T13:49:27;18.20;1.00
23079;DHT22;11707;50.830;4.364;2023-03-29T13:57:15;17.80;1.00
23079;DHT22;11707;50.830;4.364;2023-03-29T14:00:03;17.70;1.00
23079;DHT22;11707;50.830;4.364;2023-03-29T14:02:39;17.70;1.00
23079;DHT22;11707;50.830;4.364;2023-03-29T14:05:11;17.60;1.00
23079;DHT22;11707;50.830;4.364;2023-03-29T14:07:40;17.70;1.00
23079;DHT22;11707;50.830;4.364;2023-03-29T14:10:14;17.60;1.00
23079;DHT22;11707;50.830;4.364;2023-03-29T14:12:45;17.50;1.00
23079;DHT22;11707;50.830;4.364;2023-03-29T14:15:22;17.60;1.00
23079;DHT22;11707;50.830;4.364;2023-03-29T14:17:55;17.70;1.00
23079;DHT22;11707;50.830;4.364;2023-03-29T14:20:24;17.20;1.00
23079;DHT22;11707;50.830;4.364;2023-03-29T14:22:50;17.30;1.00
23079;DHT22;11707;50.830;4.364;2023-03-29T14:25:17;17.50;1.00
23079;DHT22;11707;50.830;4.364;2023-03-29T14:27:47;17.80;1.00
23079;DHT22;11707;50.830;4.364;2023-03-29T14:30:31;17.80;1.00
23079;DHT22;11707;50.830;4.364;2023-03-29T14:32:57;17.60;1.00
23079;DHT22;11707;50.830;4.364;2023-03-29T14:35:28;17.60;1.00
23079;DHT22;11707;50.830;4.364;2023-03-29T14:37:55;17.70;1.00
23079;DHT22;11707;50.830;4.364;2023-03-29T14:40:21;17.80;1.00
23079;DHT22;11707;50.830;4.364;2023-03-29T14:42:48;17.70;1.00
23079;DHT22;11707;50.830;4.364;2023-03-29T14:45:16;17.70;1.00
23079;DHT22;11707;50.830;4.364;2023-03-29T14:47:44;17.60;1.00
23079;DHT22;11707;50.830;4.364;2023-03-29T14:50:27;17.70;1.00
23079;DHT22;11707;50.830;4.364;2023-03-29T14:52:53;17.60;1.00
23079;DHT22;11707;50.830;4.364;2023-03-29T14:55:21;17.60;1.00
23079;DHT22;11707;50.830;4.364;2023-03-29T14:57:49;17.40;1.00
23079;DHT22;11707;50.830;4.364;2023-03-29T15:02:56;16.80;1.00
23079;DHT22;11707;50.830;4.364;2023-03-29T15:05:31;16.80;1.00
23079;DHT22;11707;50.830;4.364;2023-03-29T15:07:59;16.80;1.00
23079;DHT22;11707;50.830;4.364;2023-03-29T15:10:29;17.00;1.00
23079;DHT22;11707;50.830;4.364;2023-03-29T15:13:01;16.90;1.00
23079;DHT22;11707;50.830;4.364;2023-03-29T15:15:31;17.00;1.00
23079;DHT22;11707;50.830;4.364;2023-03-29T15:17:57;17.20;1.00
23079;DHT22;11707;50.830;4.364;2023-03-29T15:20:28;17.20;1.00
23079;DHT22;11707;50.830;4.364;2023-03-29T15:25:35;17.50;1.00
23079;DHT22;11707;50.830;4.364;2023-03-29T15:28:01;17.60;1.00
23079;DHT22;11707;50.830;4.364;2023-03-29T15:30:34;17.60;1.00
23079;DHT22;11707;50.830;4.364;2023-03-29T15:33:14;17.80;1.00
23079;DHT22;11707;50.830;4.364;2023-03-29T15:35:46;17.90;1.00
23079;DHT22;11707;50.830;4.364;2023-03-29T15:38:13;18.00;1.00
23079;DHT22;11707;50.830;4.364;2023-03-29T15:40:38;18.20;1.00
23079;DHT22;11707;50.830;4.364;2023-03-29T15:43:04;18.00;1.00
23079;DHT22;11707;50.830;4.364;2023-03-29T15:45:30;17.90;1.00
23079;DHT22;11707;50.830;4.364;2023-03-29T15:47:56;18.00;1.00
23079;DHT22;11707;50.830;4.364;2023-03-29T15:50:21;17.60;1.00
23079;DHT22;11707;50.830;4.364;2023-03-29T15:52:47;17.50;1.00
23079;DHT22;11707;50.830;4.364;2023-03-29T15:55:13;17.30;1.00
23079;DHT22;11707;50.830;4.364;2023-03-29T15:57:44;17.30;1.00
23079;DHT22;11707;50.830;4.364;2023-03-29T16:00:12;17.30;1.00
23079;DHT22;11707;50.830;4.364;2023-03-29T16:02:38;17.30;1.00
23079;DHT22;11707;50.830;4.364;2023-03-29T16:05:04;17.40;1.00
23079;DHT22;11707;50.830;4.364;2023-03-29T16:07:32;17.50;1.00
23079;DHT22;11707;50.830;4.364;2023-03-29T16:09:58;17.30;1.00
23079;DHT22;11707;50.830;4.364;2023-03-29T16:12:24;17.30;1.00
23079;DHT22;11707;50.830;4.364;2023-03-29T16:14:50;17.20;1.00
23079;DHT22;11707;50.830;4.364;2023-03-29T16:17:15;17.40;1.00
23079;DHT22;11707;50.830;4.364;2023-03-29T16:19:41;17.30;1.00
23079;DHT22;11707;50.830;4.364;2023-03-29T16:22:07;17.50;1.00
23079;DHT22;11707;50.830;4.364;2023-03-29T16:24:33;17.50;1.00
23079;DHT22;11707;50.830;4.364;2023-03-29T16:27:00;17.60;1.00
23079;DHT22;11707;50.830;4.364;2023-03-29T16:29:29;17.70;1.00
23079;DHT22;11707;50.830;4.364;2023-03-29T16:31:55;17.40;1.00
23079;DHT22;11707;50.830;4.364;2023-03-29T16:34:21;17.30;1.00
23079;DHT22;11707;50.830;4.364;2023-03-29T16:36:48;17.40;1.00
23079;DHT22;11707;50.830;4.364;2023-03-29T16:39:14;17.30;1.00
23079;DHT22;11707;50.830;4.364;2023-03-29T16:41:41;17.30;1.00
23079;DHT22;11707;50.830;4.364;2023-03-29T16:44:07;17.20;1.00
23079;DHT22;11707;50.830;4.364;2023-03-29T16:46:35;17.20;1.00
23079;DHT22;11707;50.830;4.364;2023-03-29T16:49:01;17.20;1.00
23079;DHT22;11707;50.830;4.364;2023-03-29T16:51:29;17.30;1.00
23079;DHT22;11707;50.830;4.364;2023-03-29T16:53:54;17.30;1.00
23079;DHT22;11707;50.830;4.364;2023-03-29T16:56:21;17.20;1.00
23079;DHT22;11707;50.830;4.364;2023-03-29T16:58:47;17.30;1.00
23079;DHT22;11707;50.830;4.364;2023-03-29T17:01:14;17.40;1.00
23079;DHT22;11707;50.830;4.364;2023-03-29T17:03:41;17.20;1.00
23079;DHT22;11707;50.830;4.364;2023-03-29T17:06:11;17.20;1.00
23079;DHT22;11707;50.830;4.364;2023-03-29T17:08:37;17.00;1.00
23079;DHT22;11707;50.830;4.364;2023-03-29T17:11:03;17.10;1.00
23079;DHT22;11707;50.830;4.364;2023-03-29T17:13:30;17.10;1.00
23079;DHT22;11707;50.830;4.364;2023-03-29T17:15:57;17.10;1.00
23079;DHT22;11707;50.830;4.364;2023-03-29T17:18:24;17.10;1.00
23079;DHT22;11707;50.830;4.364;2023-03-29T17:20:55;17.30;1.00
23079;DHT22;11707;50.830;4.364;2023-03-29T17:23:21;17.10;1.00
23079;DHT22;11707;50.830;4.364;2023-03-29T17:25:47;17.10;1.00
23079;DHT22;11707;50.830;4.364;2023-03-29T17:28:15;17.00;1.00
23079;DHT22;11707;50.830;4.364;2023-03-29T17:30:46;17.00;1.00
23079;DHT22;11707;50.830;4.364;2023-03-29T17:33:13;16.80;1.00
23079;DHT22;11707;50.830;4.364;2023-03-29T17:35:43;16.80;1.00
23079;DHT22;11707;50.830;4.364;2023-03-29T17:38:11;16.60;1.00
23079;DHT22;11707;50.830;4.364;2023-03-29T17:40:36;16.60;1.00
23079;DHT22;11707;50.830;4.364;2023-03-29T17:43:05;16.60;1.00
23079;DHT22;11707;50.830;4.364;2023-03-29T17:45:31;16.60;1.00
23079;DHT22;11707;50.830;4.364;2023-03-29T17:47:57;16.70;1.00
23079;DHT22;11707;50.830;4.364;2023-03-29T17:50:24;16.70;1.00
23079;DHT22;11707;50.830;4.364;2023-03-29T17:52:49;16.70;1.00
23079;DHT22;11707;50.830;4.364;2023-03-29T17:55:15;16.60;1.00
23079;DHT22;11707;50.830;4.364;2023-03-29T17:57:41;16.50;1.00
23079;DHT22;11707;50.830;4.364;2023-03-29T18:00:11;16.30;1.00
23079;DHT22;11707;50.830;4.364;2023-03-29T18:02:38;16.30;1.00
23079;DHT22;11707;50.830;4.364;2023-03-29T18:05:06;16.30;1.00
23079;DHT22;11707;50.830;4.364;2023-03-29T18:07:32;16.30;1.00
23079;DHT22;11707;50.830;4.364;2023-03-29T18:10:01;16.30;1.00
23079;DHT22;11707;50.830;4.364;2023-03-29T18:12:27;16.40;1.00
23079;DHT22;11707;50.830;4.364;2023-03-29T18:14:54;16.30;1.00
23079;DHT22;11707;50.830;4.364;2023-03-29T18:17:22;16.40;1.00